New Marlborough, Massachusetts
Current Conditions -  °F | °C
As of 3:54 AM on Saturday 22 Nov 2014 (Local Time) from KPSF Reporting Station
Clear Clear  
Wind Chill:   Ceiling: Unl
Heat Index: 15°   Visibility: 10mi
Dew Point: 10°   Wind: 6mph
Humidity: 80%   Direction: 240°WSW
Pressure: 30.35"   Gusts: NA
Location:  42.1779°N, 73.3332°W
Report Text: KPSF 220854Z AUTO 24005KT 10SM CLR M09/M12 A3035 RMK AO2 SLP300 T10941122 $
Loading
Personal Weather Stations






























Interactive Weather Map New forecast layout! Learn more

10-Day Weather Forecast

Advertisements
Track Severe Weather on mobile